Time;durP1;ratioP1;P1;durP2;ratioP2;P2;SDS_P1;SDS_P2;PMS_P1;PMS_P2;Temp;Humidity;BMP_temperature;BMP_pressure;BME280_temperature;BME280_humidity;BME280_pressure;Samples;Min_cycle;Max_cycle;Signal;HPM_P1;HPM_P2
2023/07/18 00:00:52;;;;;;;4.00;3.70;;;;;;;20.99;100.00;99643.16;104845;1262;72671;-51
2023/07/18 00:03:20;;;;;;;9.00;4.10;;;;;;;20.94;100.00;99642.23;104935;1257;61715;-51
2023/07/18 00:05:47;;;;;;;4.50;3.90;;;;;;;20.90;100.00;99641.17;104871;1256;60429;-51
2023/07/18 00:08:15;;;;;;;7.70;3.20;;;;;;;20.85;100.00;99643.08;105096;1257;72772;-51
2023/07/18 00:10:42;;;;;;;4.80;3.10;;;;;;;20.80;100.00;99638.45;105029;1257;66982;-51
2023/07/18 00:13:10;;;;;;;2.90;2.60;;;;;;;20.78;100.00;99641.11;105145;1265;72476;-51
2023/07/18 00:15:37;;;;;;;5.20;3.00;;;;;;;20.78;100.00;99631.98;105043;1259;61660;-50
2023/07/18 00:18:06;;;;;;;6.90;3.60;;;;;;;20.79;100.00;99630.30;105114;1259;60617;-50
2023/07/18 00:20:34;;;;;;;4.80;3.10;;;;;;;20.79;100.00;99626.61;108848;1259;73858;-52
2023/07/18 00:23:01;;;;;;;7.60;3.00;;;;;;;20.78;100.00;99624.91;108809;1258;67233;-52
2023/07/18 00:25:29;;;;;;;5.60;3.60;;;;;;;20.76;100.00;99621.23;108714;1258;72141;-50
2023/07/18 00:27:56;;;;;;;6.40;4.00;;;;;;;20.76;100.00;99621.10;108794;1259;60370;-50
2023/07/18 00:30:26;;;;;;;5.80;3.50;;;;;;;20.76;100.00;99616.48;108792;1257;60074;-50
2023/07/18 00:32:54;;;;;;;5.30;3.50;;;;;;;20.77;100.00;99606.38;108711;1257;72894;-50
2023/07/18 00:35:22;;;;;;;5.20;3.20;;;;;;;20.78;100.00;99604.52;108756;1257;66680;-50
2023/07/18 00:37:50;;;;;;;4.10;3.00;;;;;;;20.77;100.00;99596.52;108094;1259;71662;-51
2023/07/18 00:40:17;;;;;;;5.60;3.20;;;;;;;20.79;100.00;99588.73;105058;1258;61690;-50
2023/07/18 00:42:47;;;;;;;3.20;2.50;;;;;;;20.80;100.00;99584.25;105132;1262;61809;-51
2023/07/18 00:45:14;;;;;;;3.70;3.10;;;;;;;20.82;100.00;99581.17;104743;1262;72582;-50
2023/07/18 00:47:43;;;;;;;4.10;2.80;;;;;;;20.83;100.00;99574.10;104801;1261;66871;-51
2023/07/18 00:50:12;;;;;;;4.40;3.70;;;;;;;20.85;100.00;99570.83;104795;1264;73121;-51
2023/07/18 00:52:48;;;;;;;11.60;3.60;;;;;;;20.87;100.00;99563.00;105738;1262;61662;-50
2023/07/18 00:55:16;;;;;;;4.90;3.40;;;;;;;20.89;100.00;99559.76;107635;1259;59535;-51
2023/07/18 00:57:45;;;;;;;4.10;3.20;;;;;;;20.87;100.00;99557.67;106405;1259;72860;-51
2023/07/18 01:00:13;;;;;;;3.90;3.60;;;;;;;20.86;100.00;99552.29;106902;1264;66747;-51
2023/07/18 01:02:42;;;;;;;3.50;3.00;;;;;;;20.87;100.00;99549.55;104839;1262;72326;-51
2023/07/18 01:05:10;;;;;;;4.60;3.90;;;;;;;20.87;100.00;99550.77;104874;1257;62116;-51
2023/07/18 01:07:38;;;;;;;3.80;3.50;;;;;;;20.85;100.00;99545.45;105266;1256;61125;-51
2023/07/18 01:10:13;;;;;;;4.00;3.70;;;;;;;20.83;100.00;99543.73;104994;1260;72614;-51
2023/07/18 01:12:40;;;;;;;7.80;4.40;;;;;;;20.80;100.00;99543.05;104913;1259;65957;-50
2023/07/18 01:15:12;;;;;;;4.10;3.80;;;;;;;20.77;100.00;99542.35;105789;1264;72704;-50
2023/07/18 01:17:42;;;;;;;9.20;3.60;;;;;;;20.75;100.00;99542.56;105550;1256;61696;-51
2023/07/18 01:20:15;;;;;;;4.80;3.90;;;;;;;20.72;100.00;99539.20;105885;1259;60588;-50
2023/07/18 01:22:44;;;;;;;4.80;4.00;;;;;;;20.69;100.00;99534.75;104946;1256;73947;-50
2023/07/18 01:25:14;;;;;;;8.40;3.50;;;;;;;20.67;100.00;99528.36;105541;1263;66846;-50
2023/07/18 01:27:41;;;;;;;3.80;3.00;;;;;;;20.67;100.00;99525.31;104978;1265;73330;-50
2023/07/18 01:30:09;;;;;;;4.20;2.60;;;;;;;20.64;100.00;99526.70;104918;1263;62038;-51
2023/07/18 01:32:36;;;;;;;4.10;3.50;;;;;;;20.61;100.00;99521.65;104982;1263;61012;-51
2023/07/18 01:35:08;;;;;;;5.20;3.60;;;;;;;20.63;100.00;99518.58;105317;1259;71729;-49
2023/07/18 01:37:38;;;;;;;6.00;3.40;;;;;;;20.65;100.00;99513.28;105101;1253;65664;-49
2023/07/18 01:40:19;;;;;;;7.60;2.90;;;;;;;20.66;100.00;99511.22;105136;1254;72692;-51
2023/07/18 01:42:50;;;;;;;3.40;3.10;;;;;;;20.68;100.00;99513.60;106178;1258;60572;-50
2023/07/18 01:45:21;;;;;;;3.40;2.90;;;;;;;20.70;100.00;99510.23;105424;1255;60458;-50
2023/07/18 01:47:49;;;;;;;4.30;3.40;;;;;;;20.73;100.00;99513.29;105517;1255;73888;-50
2023/07/18 01:50:17;;;;;;;3.40;3.30;;;;;;;20.74;100.00;99513.69;105216;1259;66369;-50
2023/07/18 01:52:46;;;;;;;5.80;3.50;;;;;;;20.77;100.00;99520.02;105542;1258;73699;-50
2023/07/18 01:55:15;;;;;;;4.10;3.80;;;;;;;20.78;100.00;99519.32;106759;1256;61667;-51
2023/07/18 01:57:43;;;;;;;3.80;3.40;;;;;;;20.80;100.00;99516.24;105174;1256;60439;-51
2023/07/18 02:00:11;;;;;;;4.00;3.30;;;;;;;20.82;100.00;99511.70;105100;1261;73515;-49
2023/07/18 02:02:42;;;;;;;4.90;3.50;;;;;;;20.83;100.00;99512.69;107135;1256;65869;-49
2023/07/18 02:05:11;;;;;;;4.40;4.10;;;;;;;20.84;100.00;99512.41;105846;1254;71742;-50
2023/07/18 02:07:38;;;;;;;3.30;3.00;;;;;;;20.86;100.00;99511.52;106666;1258;62853;-50
2023/07/18 02:10:06;;;;;;;4.60;4.30;;;;;;;20.86;100.00;99510.16;105136;1258;60558;-50
2023/07/18 02:12:34;;;;;;;3.60;3.20;;;;;;;20.88;100.00;99511.66;105266;1256;73912;-50
2023/07/18 02:15:05;;;;;;;3.80;3.60;;;;;;;20.88;100.00;99507.11;105846;1256;67512;-49
2023/07/18 02:17:33;;;;;;;5.30;2.90;;;;;;;20.85;100.00;99506.64;105631;1255;71480;-51
2023/07/18 02:20:06;;;;;;;3.60;3.40;;;;;;;20.83;100.00;99506.80;105568;1258;61627;-51
2023/07/18 02:22:34;;;;;;;3.50;3.20;;;;;;;20.85;100.00;99501.95;106128;1257;60743;-51
2023/07/18 02:25:02;;;;;;;5.10;3.40;;;;;;;20.87;100.00;99495.53;105154;1259;74776;-50
2023/07/18 02:27:32;;;;;;;3.80;3.30;;;;;;;20.89;100.00;99496.57;105112;1256;66788;-50
2023/07/18 02:30:01;;;;;;;4.00;3.70;;;;;;;20.92;100.00;99494.19;105090;1259;72616;-50
2023/07/18 02:32:29;;;;;;;3.20;3.00;;;;;;;20.93;100.00;99493.61;106018;1255;61711;-50
2023/07/18 02:34:57;;;;;;;3.50;3.30;;;;;;;20.96;100.00;99491.38;105105;1259;59870;-49
2023/07/18 02:37:25;;;;;;;4.40;4.00;;;;;;;20.97;100.00;99494.73;105702;1259;75700;-51
2023/07/18 02:39:52;;;;;;;5.60;4.40;;;;;;;20.99;100.00;99503.34;105844;1257;66638;-50
2023/07/18 02:42:20;;;;;;;5.30;4.70;;;;;;;21.00;100.00;99517.10;105233;1255;72126;-49
2023/07/18 02:44:47;;;;;;;5.10;3.20;;;;;;;21.00;100.00;99556.62;105174;1256;61657;-51
2023/07/18 02:47:15;;;;;;;5.70;4.60;;;;;;;21.00;100.00;99594.65;106314;1258;60347;-49
2023/07/18 02:49:43;;;;;;;5.50;5.00;;;;;;;20.98;100.00;99577.99;105274;1260;73823;-48
2023/07/18 02:52:11;;;;;;;8.20;5.30;;;;;;;21.00;100.00;99568.52;105383;1256;67568;-50
2023/07/18 02:54:38;;;;;;;5.70;5.20;;;;;;;21.03;100.00;99581.48;105375;1256;71385;-49
2023/07/18 02:57:06;;;;;;;6.50;5.00;;;;;;;21.06;100.00;99582.13;105368;1262;61007;-50
2023/07/18 02:59:33;;;;;;;8.30;5.80;;;;;;;21.10;100.00;99586.20;109027;1254;59965;-51
2023/07/18 03:02:01;;;;;;;5.80;5.30;;;;;;;21.14;100.00;99581.77;109038;1254;72645;-51
2023/07/18 03:04:28;;;;;;;7.10;5.10;;;;;;;21.19;100.00;99580.42;109067;1253;67189;-50
2023/07/18 03:06:56;;;;;;;4.90;4.60;;;;;;;21.24;100.00;99582.15;108943;1256;72454;-52
2023/07/18 03:09:24;;;;;;;4.40;4.10;;;;;;;21.28;100.00;99582.81;108969;1256;60459;-50
2023/07/18 03:11:51;;;;;;;4.60;4.30;;;;;;;21.34;100.00;99568.60;109085;1254;60488;-51
2023/07/18 03:14:19;;;;;;;8.30;3.80;;;;;;;21.39;100.00;99566.63;109002;1254;74433;-50
2023/07/18 03:16:47;;;;;;;5.00;4.20;;;;;;;21.44;100.00;99569.44;108917;1255;68354;-51
2023/07/18 03:19:15;;;;;;;4.00;3.70;;;;;;;21.49;100.00;99563.50;108925;1254;71058;-50
2023/07/18 03:21:43;;;;;;;4.50;4.10;;;;;;;21.54;100.00;99565.39;108974;1254;61635;-51
2023/07/18 03:24:11;;;;;;;5.50;3.40;;;;;;;21.58;100.00;99574.90;109006;1252;58749;-51
2023/07/18 03:26:38;;;;;;;4.00;3.50;;;;;;;21.60;100.00;99565.17;108946;1253;73774;-51
2023/07/18 03:29:06;;;;;;;3.70;3.40;;;;;;;21.62;100.00;99568.92;108938;1254;66844;-51
2023/07/18 03:31:34;;;;;;;4.70;4.00;;;;;;;21.65;100.00;99579.66;108984;1254;72658;-52
2023/07/18 03:34:04;;;;;;;4.80;4.50;;;;;;;21.68;100.00;99574.44;108903;1256;61722;-51
2023/07/18 03:36:33;;;;;;;4.70;4.40;;;;;;;21.69;100.00;99573.59;108986;1254;59593;-51
2023/07/18 03:39:00;;;;;;;4.00;3.30;;;;;;;21.71;100.00;99576.66;106085;1260;74296;-48
2023/07/18 03:41:28;;;;;;;5.50;3.30;;;;;;;21.71;100.00;99573.20;105309;1259;66302;-48
2023/07/18 03:43:56;;;;;;;2.40;2.10;;;;;;;21.70;100.00;99564.17;105289;1267;72400;-49
2023/07/18 03:46:24;;;;;;;2.90;2.20;;;;;;;21.68;100.00;99561.46;105346;1254;62206;-48
2023/07/18 03:48:51;;;;;;;2.00;1.70;;;;;;;21.67;100.00;99552.23;106114;1258;61106;-48
2023/07/18 03:51:19;;;;;;;1.70;1.60;;;;;;;21.66;100.00;99543.41;105382;1259;73268;-48
2023/07/18 03:53:53;;;;;;;1.90;1.10;;;;;;;21.64;100.00;99545.17;105235;1268;67786;-48
2023/07/18 03:56:21;;;;;;;1.40;1.30;;;;;;;21.63;100.00;99540.18;105927;1258;72434;-48
2023/07/18 03:58:50;;;;;;;4.20;1.50;;;;;;;21.63;100.00;99540.96;105198;1259;61830;-50
2023/07/18 04:01:17;;;;;;;2.20;1.60;;;;;;;21.62;100.00;99544.48;106065;1259;60483;-48
2023/07/18 04:03:45;;;;;;;2.00;1.20;;;;;;;21.60;100.00;99538.88;105231;1261;73784;-47
2023/07/18 04:06:13;;;;;;;3.10;1.50;;;;;;;21.59;100.00;99537.34;105265;1261;67167;-47
2023/07/18 04:08:41;;;;;;;2.60;1.10;;;;;;;21.58;100.00;99533.81;105245;1260;72981;-48
2023/07/18 04:11:09;;;;;;;1.60;1.20;;;;;;;21.57;100.00;99533.64;105533;1256;61639;-47
2023/07/18 04:13:37;;;;;;;2.90;1.40;;;;;;;21.59;100.00;99528.94;105280;1261;60530;-49
2023/07/18 04:16:05;;;;;;;2.00;1.30;;;;;;;21.59;100.00;99522.14;104878;1258;73847;-49
2023/07/18 04:18:33;;;;;;;1.40;1.30;;;;;;;21.60;100.00;99518.02;104810;1260;67568;-50
2023/07/18 04:21:01;;;;;;;1.60;1.30;;;;;;;21.58;100.00;99512.77;104905;1260;72642;-50
2023/07/18 04:23:29;;;;;;;1.40;1.20;;;;;;;21.60;100.00;99515.53;105104;1261;61637;-47
2023/07/18 04:26:00;;;;;;;3.60;1.20;;;;;;;21.62;100.00;99519.66;105136;1257;60362;-51
2023/07/18 04:28:32;;;;;;;1.20;1.00;;;;;;;21.64;100.00;99520.58;105707;1260;73814;-51
2023/07/18 04:31:00;;;;;;;1.40;1.30;;;;;;;21.66;100.00;99520.38;105424;1256;65704;-51
2023/07/18 04:33:27;;;;;;;1.30;1.10;;;;;;;21.67;100.00;99510.58;105304;1271;72696;-51
2023/07/18 04:35:55;;;;;;;1.20;1.10;;;;;;;21.66;100.00;99507.55;105141;1259;61716;-50
2023/07/18 04:38:22;;;;;;;2.50;1.40;;;;;;;21.65;100.00;99503.52;104934;1262;60537;-51
2023/07/18 04:40:50;;;;;;;3.40;1.10;;;;;;;21.64;100.00;99497.91;104733;1256;73248;-51
2023/07/18 04:43:19;;;;;;;2.30;1.00;;;;;;;21.64;100.00;99496.96;105047;1261;66888;-51
2023/07/18 04:45:47;;;;;;;1.10;1.00;;;;;;;21.65;100.00;99494.16;105723;1261;73578;-51
2023/07/18 04:48:15;;;;;;;1.20;1.10;;;;;;;21.65;100.00;99491.02;105293;1262;61724;-51
2023/07/18 04:50:43;;;;;;;1.20;1.10;;;;;;;21.65;100.00;99483.55;105705;1261;60457;-51
2023/07/18 04:53:11;;;;;;;2.60;0.90;;;;;;;21.64;100.00;99486.06;105180;1260;72597;-49
2023/07/18 04:55:38;;;;;;;1.00;0.90;;;;;;;21.63;100.00;99478.08;105232;1260;67641;-49
2023/07/18 04:58:06;;;;;;;1.20;1.00;;;;;;;21.63;100.00;99479.55;105320;1257;71812;-50
2023/07/18 05:00:34;;;;;;;1.70;0.90;;;;;;;21.64;100.00;99491.20;105169;1260;60796;-50
2023/07/18 05:03:02;;;;;;;0.90;0.90;;;;;;;21.64;100.00;99498.43;105249;1258;60502;-49
2023/07/18 05:05:29;;;;;;;1.00;0.80;;;;;;;21.66;100.00;99509.23;105273;1259;73825;-49
2023/07/18 05:08:02;;;;;;;0.90;0.90;;;;;;;21.66;100.00;99514.00;105473;1260;67763;-49
2023/07/18 05:10:29;;;;;;;1.30;0.70;;;;;;;21.65;100.00;99505.36;106302;1259;71259;-49
2023/07/18 05:12:57;;;;;;;1.40;0.80;;;;;;;21.63;100.00;99500.71;105256;1259;61230;-50
2023/07/18 05:15:24;;;;;;;1.00;0.80;;;;;;;21.64;100.00;99496.04;105279;1257;60897;-49
2023/07/18 05:17:52;;;;;;;2.00;0.90;;;;;;;21.66;100.00;99497.34;105293;1258;72543;-50
2023/07/18 05:20:20;;;;;;;2.20;0.80;;;;;;;21.67;100.00;99487.97;105308;1254;66759;-49
2023/07/18 05:22:47;;;;;;;0.80;0.80;;;;;;;21.67;100.00;99489.01;105245;1258;71396;-51
2023/07/18 05:25:15;;;;;;;1.40;0.80;;;;;;;21.68;100.00;99485.80;105350;1265;60640;-49
2023/07/18 05:27:42;;;;;;;1.20;1.10;;;;;;;21.69;100.00;99480.22;105884;1260;60458;-50
2023/07/18 05:30:15;;;;;;;1.40;0.90;;;;;;;21.69;100.00;99475.63;105731;1258;73849;-50
2023/07/18 05:32:43;;;;;;;0.70;0.70;;;;;;;21.71;100.00;99474.55;106538;1254;66803;-49
2023/07/18 05:35:13;;;;;;;0.80;0.80;;;;;;;21.74;100.00;99474.27;105324;1261;72652;-50
2023/07/18 05:37:41;;;;;;;5.10;1.00;;;;;;;21.75;100.00;99470.66;105272;1259;60533;-51
2023/07/18 05:40:11;;;;;;;0.80;0.80;;;;;;;21.78;100.00;99469.45;105211;1254;60454;-50
2023/07/18 05:42:40;;;;;;;0.90;0.80;;;;;;;21.83;100.00;99467.13;105503;1258;74503;-52
2023/07/18 05:45:08;;;;;;;0.70;0.70;;;;;;;21.87;100.00;99462.70;105643;1258;67415;-51
2023/07/18 05:47:36;;;;;;;1.90;0.80;;;;;;;21.88;100.00;99458.91;104516;1259;73234;-51
2023/07/18 05:50:05;;;;;;;0.80;0.80;;;;;;;21.95;100.00;99466.92;105709;1257;61785;-50
2023/07/18 05:52:32;;;;;;;0.70;0.60;;;;;;;22.01;100.00;99465.38;104824;1254;60557;-50
2023/07/18 05:55:01;;;;;;;0.80;0.80;;;;;;;22.07;100.00;99453.83;109079;1259;73761;-52
2023/07/18 05:57:28;;;;;;;0.80;0.80;;;;;;;22.12;100.00;99452.62;108967;1253;67171;-53
2023/07/18 05:59:56;;;;;;;2.00;0.80;;;;;;;22.15;100.00;99434.39;108984;1254;72277;-51
2023/07/18 06:02:23;;;;;;;2.30;0.80;;;;;;;22.17;100.00;99422.05;108980;1257;60556;-52
2023/07/18 06:04:50;;;;;;;1.00;0.70;;;;;;;22.19;100.00;99406.38;109064;1254;59398;-52
2023/07/18 06:07:18;;;;;;;0.80;0.80;;;;;;;22.21;100.00;99406.84;108132;1259;72609;-50
2023/07/18 06:09:49;;;;;;;0.90;0.80;;;;;;;22.25;100.00;99414.48;104978;1254;66689;-51
2023/07/18 06:12:16;;;;;;;5.10;1.00;;;;;;;22.31;100.00;99410.77;108936;1258;72856;-52
2023/07/18 06:14:43;;;;;;;0.80;0.80;;;;;;;22.37;100.00;99404.92;108999;1254;60379;-52
2023/07/18 06:17:11;;;;;;;1.00;0.80;;;;;;;22.43;100.00;99400.23;107272;1258;253600;-51
2023/07/18 06:20:41;;;;;;;0.90;0.80;;;;;;;22.54;100.00;99430.71;102434;1293;601963;-50
2023/07/18 06:23:09;;;;;;;4.20;1.40;;;;;;;22.58;100.00;99429.50;108421;1266;58821;-51
2023/07/18 06:25:37;;;;;;;2.60;0.80;;;;;;;22.65;100.00;99427.70;108395;1266;58861;-52
2023/07/18 06:28:04;;;;;;;1.00;0.90;;;;;;;22.72;100.00;99426.70;108406;1266;71086;-52
2023/07/18 06:30:32;;;;;;;0.90;0.80;;;;;;;22.78;100.00;99426.41;108386;1266;66253;-52
2023/07/18 06:32:59;;;;;;;0.70;0.70;;;;;;;22.84;100.00;99428.86;108378;1265;72638;-52
2023/07/18 06:35:27;;;;;;;0.80;0.80;;;;;;;22.89;100.00;99425.23;108301;1263;256329;-52
2023/07/18 06:37:54;;;;;;;1.50;0.60;;;;;;;22.95;100.00;99422.98;107915;1263;59391;-51
2023/07/18 06:40:21;;;;;;;0.90;0.90;;;;;;;23.02;100.00;99417.09;104418;1263;70996;-51
2023/07/18 06:42:48;;;;;;;0.80;0.80;;;;;;;23.12;100.00;99408.03;104566;1263;67373;-51
2023/07/18 06:45:16;;;;;;;0.70;0.70;;;;;;;23.23;100.00;99402.98;104809;1264;72427;-50
2023/07/18 06:47:44;;;;;;;0.70;0.70;;;;;;;23.36;100.00;99395.39;104286;1267;60137;-51
2023/07/18 06:50:11;;;;;;;0.80;0.80;;;;;;;23.49;100.00;99388.54;104545;1264;60039;-49
2023/07/18 06:52:39;;;;;;;5.10;0.80;;;;;;;23.61;100.00;99390.63;104436;1263;73625;-50
2023/07/18 06:55:10;;;;;;;0.60;0.60;;;;;;;23.73;100.00;99383.54;104292;1264;65794;-50
2023/07/18 06:57:38;;;;;;;1.00;0.70;;;;;;;23.81;100.00;99384.80;106102;1254;71453;-51
2023/07/18 07:00:11;;;;;;;1.10;0.70;;;;;;;23.88;100.00;99381.21;105529;1256;60697;-51
2023/07/18 07:02:39;;;;;;;1.00;0.90;;;;;;;23.92;100.00;99380.29;105687;1254;62302;-51
2023/07/18 07:05:06;;;;;;;1.60;0.90;;;;;;;23.97;100.00;99383.13;105264;1254;71787;-51
2023/07/18 07:07:34;;;;;;;1.00;0.90;;;;;;;24.00;100.00;99379.92;105221;1254;67176;-50
2023/07/18 07:10:04;;;;;;;1.20;0.70;;;;;;;24.04;100.00;99376.80;105111;1254;72684;-51
2023/07/18 07:12:32;;;;;;;2.60;0.60;;;;;;;24.08;100.00;99375.73;105124;1254;61705;-51
2023/07/18 07:15:04;;;;;;;1.10;0.70;;;;;;;24.12;100.00;99370.17;106734;1256;59284;-51
2023/07/18 07:17:32;;;;;;;1.90;0.60;;;;;;;24.18;100.00;99366.33;105306;1254;71757;-50
2023/07/18 07:19:59;;;;;;;0.70;0.60;;;;;;;24.23;100.00;99364.16;105091;1254;67010;-50
2023/07/18 07:22:27;;;;;;;0.70;0.70;;;;;;;24.28;100.00;99360.77;105098;1254;71836;-50
2023/07/18 07:24:54;;;;;;;0.80;0.70;;;;;;;24.33;100.00;99363.86;105374;1253;60025;-51
2023/07/18 07:27:22;;;;;;;0.80;0.60;;;;;;;24.38;100.00;99364.23;105238;1256;59627;-53
2023/07/18 07:29:51;;;;;;;0.70;0.50;;;;;;;24.43;100.00;99365.85;105631;1256;70914;-51
2023/07/18 07:32:19;;;;;;;0.60;0.60;;;;;;;24.47;100.00;99364.84;105474;1256;67175;-50
2023/07/18 07:34:47;;;;;;;0.90;0.70;;;;;;;24.49;100.00;99361.09;105158;1254;73157;-50
2023/07/18 07:37:14;;;;;;;0.80;0.60;;;;;;;24.50;100.00;99356.19;105260;1256;60045;-51
2023/07/18 07:39:42;;;;;;;0.70;0.70;;;;;;;24.50;100.00;99362.28;105203;1252;60480;-50
2023/07/18 07:42:09;;;;;;;0.80;0.70;;;;;;;24.49;100.00;99358.71;104947;1253;71766;-48
2023/07/18 07:44:36;;;;;;;0.80;0.60;;;;;;;24.48;100.00;99352.50;105590;1255;67592;-50
2023/07/18 07:47:04;;;;;;;0.70;0.60;;;;;;;24.46;100.00;99356.52;105618;1254;73258;-49
2023/07/18 07:49:31;;;;;;;1.50;0.70;;;;;;;24.45;100.00;99353.48;105594;1254;59847;-50
2023/07/18 07:51:59;;;;;;;1.10;0.70;;;;;;;24.44;100.00;99355.44;105488;1256;59850;-46
2023/07/18 07:54:26;;;;;;;1.20;0.60;;;;;;;24.43;100.00;99351.17;105441;1256;73317;-51
2023/07/18 07:56:54;;;;;;;0.60;0.60;;;;;;;24.41;100.00;99353.27;105890;1256;66949;-50
2023/07/18 07:59:22;;;;;;;2.20;0.70;;;;;;;24.39;100.00;99358.13;105525;1253;73107;-49
2023/07/18 08:01:49;;;;;;;3.00;0.90;;;;;;;24.37;100.00;99354.86;105438;1254;59499;-51
2023/07/18 08:04:19;;;;;;;0.70;0.70;;;;;;;24.33;100.00;99358.70;105697;1252;60150;-49
2023/07/18 08:06:47;;;;;;;1.10;0.80;;;;;;;24.30;100.00;99357.67;105627;1255;71800;-49
2023/07/18 08:09:15;;;;;;;1.00;0.70;;;;;;;24.25;100.00;99354.20;105370;1254;67119;-50
2023/07/18 08:11:43;;;;;;;0.90;0.70;;;;;;;24.19;100.00;99356.84;105518;1256;72594;-50
2023/07/18 08:14:10;;;;;;;0.60;0.60;;;;;;;24.15;100.00;99358.32;105269;1256;61720;-51
2023/07/18 08:16:38;;;;;;;1.50;0.60;;;;;;;24.11;100.00;99351.29;105525;1253;60007;-51
2023/07/18 08:19:05;;;;;;;0.80;0.60;;;;;;;24.06;100.00;99348.55;105085;1256;73012;-51
2023/07/18 08:21:33;;;;;;;1.00;0.60;;;;;;;24.00;100.00;99355.47;105460;1256;66901;-50
2023/07/18 08:24:01;;;;;;;1.70;0.60;;;;;;;23.94;100.00;99361.74;105340;1251;72636;-51
2023/07/18 08:26:28;;;;;;;1.00;0.80;;;;;;;23.88;100.00;99356.66;105678;1256;60466;-50
2023/07/18 08:28:56;;;;;;;0.90;0.80;;;;;;;23.81;100.00;99351.10;105325;1252;60986;-52
2023/07/18 08:31:23;;;;;;;0.90;0.90;;;;;;;23.75;100.00;99349.73;105172;1256;73118;-51
2023/07/18 08:33:51;;;;;;;0.60;0.60;;;;;;;23.72;100.00;99360.56;105341;1256;64883;-50
2023/07/18 08:36:18;;;;;;;0.90;0.70;;;;;;;23.67;100.00;99359.77;105228;1254;73135;-50
2023/07/18 08:38:49;;;;;;;1.00;0.90;;;;;;;23.60;100.00;99360.37;105434;1256;61662;-49
2023/07/18 08:41:18;;;;;;;2.40;0.70;;;;;;;23.54;100.00;99354.05;105547;1253;59739;-51
2023/07/18 08:43:46;;;;;;;1.00;0.70;;;;;;;23.50;100.00;99351.09;105490;1256;72111;-51
2023/07/18 08:46:14;;;;;;;5.50;0.80;;;;;;;23.45;100.00;99339.52;105185;1254;66816;-50
2023/07/18 08:48:43;;;;;;;0.80;0.70;;;;;;;23.40;100.00;99335.64;105640;1254;72654;-51
2023/07/18 08:51:11;;;;;;;1.30;0.70;;;;;;;23.38;100.00;99336.20;106415;1253;60461;-50
2023/07/18 08:53:39;;;;;;;3.00;1.30;;;;;;;23.37;100.00;99339.91;105344;1254;60137;-48
2023/07/18 08:56:10;;;;;;;0.80;0.60;;;;;;;23.38;100.00;99341.27;109170;1252;73657;-51
2023/07/18 08:58:37;;;;;;;0.70;0.70;;;;;;;23.40;100.00;99336.29;109210;1254;65967;-51
2023/07/18 09:01:06;;;;;;;0.80;0.80;;;;;;;23.41;100.00;99338.59;109150;1253;74570;-50
2023/07/18 09:03:34;;;;;;;0.70;0.70;;;;;;;23.42;100.00;99345.36;109028;1254;61714;-51
2023/07/18 09:06:02;;;;;;;1.40;0.80;;;;;;;23.43;100.00;99343.61;108966;1252;62988;-52
2023/07/18 09:08:57;;;;;;;0.80;0.80;;;;;;;23.44;100.00;99344.79;109198;1253;71765;-51
2023/07/18 09:11:24;;;;;;;2.30;0.90;;;;;;;23.45;100.00;99347.95;109135;1252;66046;-52
2023/07/18 09:13:52;;;;;;;1.00;0.80;;;;;;;23.46;100.00;99348.41;109287;1254;72491;-52
2023/07/18 09:16:21;;;;;;;1.00;0.80;;;;;;;23.46;100.00;99345.61;109127;1252;61599;-52
2023/07/18 09:18:53;;;;;;;0.80;0.80;;;;;;;23.47;100.00;99348.42;109053;1254;60473;-51
2023/07/18 09:21:21;;;;;;;0.90;0.90;;;;;;;23.49;100.00;99352.64;109172;1254;72977;-51
2023/07/18 09:23:49;;;;;;;2.50;0.80;;;;;;;23.50;100.00;99348.48;109236;1253;66275;-51
2023/07/18 09:26:18;;;;;;;0.90;0.90;;;;;;;23.53;100.00;99341.80;109216;1254;71422;-51
2023/07/18 09:28:46;;;;;;;1.50;1.00;;;;;;;23.58;100.00;99340.83;109041;1252;61732;-48
2023/07/18 09:31:21;;;;;;;0.80;0.80;;;;;;;23.66;100.00;99331.55;105479;1259;59259;-50
2023/07/18 09:33:51;;;;;;;0.90;0.90;;;;;;;23.81;100.00;99326.57;109167;1254;73017;-51
2023/07/18 09:36:23;;;;;;;0.90;0.90;;;;;;;23.99;100.00;99326.23;109226;1254;67197;-53
2023/07/18 09:38:50;;;;;;;1.10;0.90;;;;;;;24.14;100.00;99320.33;109122;1254;72662;-51
2023/07/18 09:41:22;;;;;;;1.90;1.00;;;;;;;24.25;100.00;99328.28;109080;1254;60983;-50
2023/07/18 09:43:50;;;;;;;0.80;0.80;;;;;;;24.33;100.00;99329.24;109201;1254;60177;-50
2023/07/18 09:46:17;;;;;;;1.70;0.80;;;;;;;24.39;100.00;99325.48;106523;1260;71588;-52
2023/07/18 09:48:45;;;;;;;1.00;0.90;;;;;;;24.45;100.00;99323.09;105428;1254;65172;-51
2023/07/18 09:51:20;;;;;;;1.50;0.80;;;;;;;24.51;100.00;99323.15;105527;1256;72556;-50
2023/07/18 09:53:48;;;;;;;1.00;0.80;;;;;;;24.60;100.00;99315.95;106625;1253;62353;-49
2023/07/18 09:56:16;;;;;;;1.00;0.80;;;;;;;24.70;100.00;99312.36;105610;1253;60525;-51
2023/07/18 09:58:44;;;;;;;0.80;0.80;;;;;;;24.82;100.00;99311.20;105489;1259;73010;-50
2023/07/18 10:01:13;;;;;;;1.30;0.70;;;;;;;24.93;100.00;99308.15;105820;1258;66730;-50
2023/07/18 10:03:40;;;;;;;0.70;0.70;;;;;;;25.01;100.00;99304.58;106326;1264;72586;-50
2023/07/18 10:06:09;;;;;;;0.90;0.80;;;;;;;25.08;100.00;99296.48;105490;1254;60127;-51
2023/07/18 10:08:38;;;;;;;0.70;0.70;;;;;;;25.18;100.00;99295.02;105346;1253;60033;-50
2023/07/18 10:11:11;;;;;;;0.70;0.70;;;;;;;25.30;100.00;99293.11;106172;1256;71754;-51
2023/07/18 10:13:55;;;;;;;1.20;0.70;;;;;;;25.42;100.00;99298.37;105583;1259;66143;-50
2023/07/18 10:16:23;;;;;;;0.70;0.70;;;;;;;25.50;100.00;99292.91;105446;1254;73161;-52
2023/07/18 10:18:50;;;;;;;0.70;0.70;;;;;;;25.56;100.00;99288.86;105491;1253;59825;-51
2023/07/18 10:21:35;;;;;;;0.80;0.70;;;;;;;25.63;100.00;99293.13;106471;1254;60118;-51
2023/07/18 10:24:35;;;;;;;0.70;0.70;;;;;;;25.67;100.00;99301.67;105722;1253;72959;-51
2023/07/18 10:27:09;;;;;;;0.60;0.60;;;;;;;25.67;100.00;99297.48;105170;1256;66750;-50
2023/07/18 10:29:41;;;;;;;0.80;0.60;;;;;;;25.65;100.00;99295.48;105470;1256;73277;-51
2023/07/18 10:32:11;;;;;;;0.60;0.60;;;;;;;25.65;100.00;99292.56;105559;1258;61164;-51
2023/07/18 10:34:45;;;;;;;0.70;0.70;;;;;;;25.66;100.00;99290.55;105970;1257;61873;-50
2023/07/18 10:37:14;;;;;;;0.70;0.70;;;;;;;25.67;100.00;99288.80;106981;1259;72965;-51
2023/07/18 10:39:43;;;;;;;1.80;0.70;;;;;;;25.67;100.00;99289.01;105705;1256;66772;-52
2023/07/18 10:42:20;;;;;;;0.70;0.70;;;;;;;25.67;100.00;99282.42;105602;1254;71414;-50
2023/07/18 10:44:48;;;;;;;2.00;0.70;;;;;;;25.64;100.00;99283.02;105541;1253;60585;-50
2023/07/18 10:47:17;;;;;;;2.80;0.70;;;;;;;25.61;100.00;99278.44;105410;1257;60636;-51
2023/07/18 10:49:45;;;;;;;0.80;0.70;;;;;;;25.60;100.00;99278.17;105910;1256;73727;-51
2023/07/18 10:52:13;;;;;;;1.00;0.70;;;;;;;25.60;100.00;99277.30;105540;1252;66920;-52
2023/07/18 10:54:45;;;;;;;0.70;0.70;;;;;;;25.62;100.00;99277.98;105637;1256;72676;-52
2023/07/18 10:57:13;;;;;;;0.90;0.70;;;;;;;25.62;100.00;99276.72;105502;1254;60548;-52
2023/07/18 10:59:43;;;;;;;0.60;0.60;;;;;;;25.63;100.00;99273.99;105624;1254;60514;-51
2023/07/18 11:02:11;;;;;;;0.80;0.70;;;;;;;25.67;100.00;99266.83;106581;1256;73900;-51
2023/07/18 11:04:38;;;;;;;2.30;0.80;;;;;;;25.69;100.00;99260.09;105788;1254;66033;-51
2023/07/18 11:07:10;;;;;;;0.70;0.70;;;;;;;25.74;100.00;99259.29;105500;1256;72546;-50
2023/07/18 11:09:37;;;;;;;1.00;0.80;;;;;;;25.80;100.00;99259.80;105664;1254;61259;-51
2023/07/18 11:12:06;;;;;;;1.00;0.70;;;;;;;25.85;100.00;99257.60;105415;1254;60578;-51
2023/07/18 11:14:39;;;;;;;0.70;0.70;;;;;;;25.91;100.00;99252.31;105955;1256;73867;-49
2023/07/18 11:17:14;;;;;;;1.10;1.00;;;;;;;26.02;100.00;99253.45;105905;1254;67169;-50
2023/07/18 11:19:41;;;;;;;0.80;0.80;;;;;;;26.12;100.00;99248.08;106395;1256;72938;-51
2023/07/18 11:22:10;;;;;;;1.50;1.20;;;;;;;26.14;100.00;99251.25;105485;1259;60558;-51
2023/07/18 11:24:37;;;;;;;1.00;0.70;;;;;;;26.15;100.00;99254.91;105409;1257;60457;-53